Time;durP1;ratioP1;P1;durP2;ratioP2;P2;SDS_P1;SDS_P2;PMS_P1;PMS_P2;Temp;Humidity;BMP_temperature;BMP_pressure;BME280_temperature;BME280_humidity;BME280_pressure;Samples;Min_cycle;Max_cycle;Signal;HPM_P1;HPM_P2
2023/12/15 00:01:02;;;;;;;1.83;1.73;;;;;2.60;97130.00;;;;5044420;28;20478;-63
2023/12/15 00:03:51;;;;;;;1.70;1.63;;;;;2.40;97134.00;;;;5047584;28;20434;-63
2023/12/15 00:06:40;;;;;;;0.90;0.90;;;;;2.40;97143.00;;;;5046685;28;20423;-63
2023/12/15 00:09:29;;;;;;;1.00;1.00;;;;;2.20;97144.00;;;;5048209;28;20412;-62
2023/12/15 00:12:20;;;;;;;1.20;1.10;;;;;2.10;97152.00;;;;5042943;28;20837;-63
2023/12/15 00:15:10;;;;;;;1.10;1.10;;;;;2.40;97156.00;;;;5050477;28;20419;-63
2023/12/15 00:17:59;;;;;;;2.00;1.90;;;;;1.90;97150.00;;;;5046704;28;20801;-63
2023/12/15 00:20:48;;;;;;;1.50;1.40;;;;;1.60;97153.00;;;;5046308;28;20466;-61
2023/12/15 00:23:37;;;;;;;1.27;1.17;;;;;2.20;97166.00;;;;5049999;28;20434;-63
2023/12/15 00:26:26;;;;;;;1.53;1.43;;;;;2.10;97170.00;;;;5048403;28;20422;-62
2023/12/15 00:29:17;;;;;;;1.07;1.07;;;;;1.80;97168.00;;;;5047043;28;20987;-63
2023/12/15 00:35:07;;;;;;;1.73;1.63;;;;;2.40;97183.00;;;;4981006;28;20438;-70
2023/12/15 00:37:56;;;;;;;2.20;2.00;;;;;2.30;97179.00;;;;4987911;28;20952;-69
2023/12/15 00:40:45;;;;;;;1.10;1.10;;;0.20;99.90;2.20;97183.00;;;;4987094;28;20473;-69
2023/12/15 00:43:34;;;;;;;1.27;1.17;;;0.20;99.90;1.70;97183.00;;;;4987025;28;20450;-69
2023/12/15 00:46:24;;;;;;;2.23;2.13;;;0.10;99.90;2.10;97183.00;;;;4984384;28;20426;-69
2023/12/15 00:49:13;;;;;;;0.90;0.90;;;0.10;99.90;2.60;97192.00;;;;4990020;28;20425;-69
2023/12/15 00:52:02;;;;;;;1.77;1.67;;;0.10;99.90;2.40;97197.00;;;;4990949;28;20429;-69
2023/12/15 00:54:50;;;;;;;1.57;1.47;;;0.20;99.90;2.30;97197.00;;;;4986021;28;20426;-69
2023/12/15 00:57:39;;;;;;;1.10;1.10;;;0.20;99.90;2.00;97192.00;;;;4991320;28;20472;-69
2023/12/15 01:00:28;;;;;;;1.30;1.20;;;0.20;99.90;1.80;97201.00;;;;4991544;28;20462;-69
2023/12/15 01:03:18;;;;;;;1.27;1.17;;;0.20;99.90;2.30;97208.00;;;;4985777;28;20464;-70
2023/12/15 01:06:07;;;;;;;1.37;1.37;;;0.20;99.90;2.60;97228.00;;;;4991275;28;20990;-69
2023/12/15 01:08:56;;;;;;;1.87;1.77;;;0.30;99.90;2.40;97232.00;;;;4991062;28;20442;-69
2023/12/15 01:11:45;;;;;;;1.40;1.30;;;0.30;99.90;2.30;97232.00;;;;4990884;28;20430;-69
2023/12/15 01:14:34;;;;;;;1.53;1.43;;;;;2.20;97227.00;;;;4990953;28;20510;-69
2023/12/15 01:17:23;;;;;;;1.07;1.00;;;;;2.30;97233.00;;;;4986871;28;20939;-69
2023/12/15 01:20:16;;;;;;;1.10;1.00;;;;;2.60;97227.00;;;;4990806;28;20474;-69
2023/12/15 01:23:05;;;;;;;2.37;2.17;;;;;2.80;97215.00;;;;4989936;28;20449;-69
2023/12/15 01:25:54;;;;;;;2.73;2.47;;;;;2.80;97224.00;;;;4989041;28;20434;-69
2023/12/15 01:28:44;;;;;;;1.20;1.10;;;;;2.40;97230.00;;;;4993105;28;20461;-70
2023/12/15 01:31:33;;;;;;;1.50;1.40;;;;;2.00;97221.00;;;;4991566;28;21130;-70
2023/12/15 01:34:22;;;;;;;1.40;1.30;;;;;1.90;97226.00;;;;4990739;28;20467;-69
2023/12/15 01:37:13;;;;;;;1.50;1.40;;;;;2.00;97225.00;;;;4993993;28;20822;-69
2023/12/15 01:40:02;;;;;;;2.20;2.00;;;;;2.50;97225.00;;;;4988993;28;21395;-69
2023/12/15 01:42:51;;;;;;;2.17;2.00;;;;;2.60;97230.00;;;;4989227;28;20901;-69
2023/12/15 01:45:41;;;;;;;1.77;1.60;;;;;2.10;97228.00;;;;4990517;28;20813;-69
2023/12/15 01:48:31;;;;;;;1.43;1.33;;;;;2.30;97235.00;;;;4987199;28;20438;-69
2023/12/15 01:51:20;;;;;;;1.73;1.63;;;;;2.50;97257.00;;;;4984918;28;20419;-69
2023/12/15 01:54:11;;;;;;;1.10;1.00;;;;;2.60;97258.00;;;;4990231;28;21022;-69
2023/12/15 01:57:00;;;;;;;2.83;2.53;;;;;2.40;97258.00;;;;4987942;28;20431;-69
2023/12/15 01:59:50;;;;;;;1.97;1.77;;;;;2.50;97273.00;;;;4989451;28;20951;-69
2023/12/15 02:02:39;;;;;;;2.20;1.90;;;;;2.60;97270.00;;;;4988908;28;20461;-70
2023/12/15 02:05:28;;;;;;;1.77;1.67;;;;;2.70;97278.00;;;;4988530;28;20426;-69
2023/12/15 02:08:17;;;;;;;1.30;1.20;;;;;2.70;97277.00;;;;4990467;28;20466;-69
2023/12/15 02:11:08;;;;;;;2.10;1.90;;;;;2.70;97279.00;;;;4988778;28;20430;-69
2023/12/15 02:13:57;;;;;;;2.20;2.00;;;;;2.10;97274.00;;;;4989519;28;20991;-70
2023/12/15 02:16:46;;;;;;;1.50;1.40;;;;;2.20;97296.00;;;;4989552;28;20430;-69
2023/12/15 02:19:35;;;;;;;1.80;1.60;;;;;2.20;97290.00;;;;4990285;28;21136;-70
2023/12/15 02:22:27;;;;;;;1.27;1.17;;;;;2.30;97277.00;;;;4989405;28;20512;-69
2023/12/15 02:25:18;;;;;;;1.23;1.13;;;;;2.50;97298.00;;;;4990461;28;20811;-69
2023/12/15 02:28:07;;;;;;;1.83;1.73;;;;;2.60;97295.00;;;;4989574;28;20431;-69
2023/12/15 02:30:56;;;;;;;1.80;1.67;;;;;2.70;97296.00;;;;4989002;28;20431;-69
2023/12/15 02:33:45;;;;;;;1.40;1.30;;;;;2.50;97287.00;;;;4989672;28;20472;-69
2023/12/15 02:36:34;;;;;;;1.10;1.00;;;;;2.60;97286.00;;;;4986263;28;20981;-69
2023/12/15 02:39:24;;;;;;;0.80;0.80;;;;;2.80;97289.00;;;;4986202;28;20437;-69
2023/12/15 02:42:14;;;;;;;1.63;1.43;;;;;2.90;97302.00;;;;4989548;28;20474;-69
2023/12/15 02:45:03;;;;;;;2.37;2.17;;;;;2.90;97297.00;;;;4987697;28;20453;-69
2023/12/15 02:47:52;;;;;;;1.13;1.07;;;;;2.70;97291.00;;;;4989739;28;20445;-69
2023/12/15 02:50:41;;;;;;;1.60;1.50;;;;;2.70;97297.00;;;;4988821;28;20426;-69
2023/12/15 02:53:31;;;;;;;1.50;1.40;;;;;2.90;97305.00;;;;4989265;28;20477;-69
2023/12/15 02:56:21;;;;;;;2.93;2.53;;;;;2.80;97314.00;;;;4989000;28;20433;-69
2023/12/15 02:59:10;;;;;;;1.03;1.00;;;;;2.50;97303.00;;;;4989488;28;20426;-70
2023/12/15 03:01:59;;;;;;;3.33;2.93;;;;;2.30;97302.00;;;;4986511;28;20466;-69
2023/12/15 03:04:48;;;;;;;1.20;1.10;;;;;2.50;97309.00;;;;4988606;28;20426;-69
2023/12/15 03:07:38;;;;;;;1.23;1.10;;;;;2.50;97303.00;;;;4989032;28;20446;-69
2023/12/15 03:10:27;;;;;;;1.67;1.57;;;;;2.10;97308.00;;;;4989013;28;20865;-69
2023/12/15 03:13:17;;;;;;;1.40;1.30;;;;;2.50;97313.00;;;;4988577;28;20967;-69
2023/12/15 03:16:10;;;;;;;1.70;1.60;;;;;2.50;97314.00;;;;4987442;28;20437;-69
2023/12/15 03:18:59;;;;;;;2.37;2.17;;;;;2.30;97328.00;;;;4986188;28;21017;-69
2023/12/15 03:21:48;;;;;;;1.83;1.73;;;;;2.60;97336.00;;;;4994828;28;20473;-70
2023/12/15 03:24:37;;;;;;;1.50;1.40;;;;;2.70;97342.00;;;;4986904;28;20433;-69
2023/12/15 03:27:26;;;;;;;1.20;1.10;;;;;2.10;97337.00;;;;4986506;28;20422;-69
2023/12/15 03:30:17;;;;;;;1.40;1.30;;;;;2.10;97337.00;;;;4994781;28;20425;-70
2023/12/15 03:33:06;;;;;;;2.53;2.33;;;;;2.20;97344.00;;;;4987334;28;20461;-69
2023/12/15 03:35:55;;;;;;;2.33;2.13;;;;;2.10;97353.00;;;;4985337;28;20438;-70
2023/12/15 03:38:44;;;;;;;1.50;1.40;;;;;1.80;97340.00;;;;4988461;28;20442;-69
2023/12/15 03:41:33;;;;;;;1.50;1.40;;;;;1.90;97348.00;;;;4988115;28;21254;-70
2023/12/15 03:44:22;;;;;;;1.10;1.00;;;;;1.90;97342.00;;;;4988801;28;20458;-69
2023/12/15 03:47:13;;;;;;;1.60;1.50;;;;;1.70;97359.00;;;;4987692;28;20449;-70
2023/12/15 03:50:02;;;;;;;2.27;2.07;;;;;2.20;97363.00;;;;4988254;28;20434;-70
2023/12/15 03:52:51;;;;;;;1.30;1.20;;;;;2.20;97367.00;;;;4988867;28;20449;-69
2023/12/15 03:55:40;;;;;;;1.40;1.30;;;;;2.40;97380.00;;;;4986659;28;20430;-70
2023/12/15 03:58:30;;;;;;;1.30;1.20;;;;;2.20;97371.00;;;;4986984;28;20433;-70
2023/12/15 04:01:19;;;;;;;2.17;1.97;;;;;2.30;97380.00;;;;4989103;28;20466;-70
2023/12/15 04:04:09;;;;;;;2.37;2.17;;;;;2.20;97382.00;;;;4986850;28;20462;-70
2023/12/15 04:06:58;;;;;;;2.13;1.93;;;;;1.70;97382.00;;;;4985904;28;20441;-70
2023/12/15 04:09:47;;;;;;;1.73;1.63;;;;;2.00;97378.00;;;;4988346;28;20453;-70
2023/12/15 04:12:36;;;;;;;1.73;1.63;;;;;1.80;97388.00;;;;4987797;28;20951;-70
2023/12/15 04:15:26;;;;;;;1.07;1.00;;;;;2.30;97402.00;;;;4984124;28;20438;-70
2023/12/15 04:18:16;;;;;;;1.57;1.47;;;;;1.80;97391.00;;;;4993673;28;20424;-69
2023/12/15 04:21:07;;;;;;;2.50;2.30;;;;;1.30;97390.00;;;;4980806;28;20516;-70
2023/12/15 04:23:56;;;;;;;1.93;1.77;;;;;1.40;97400.00;;;;4992326;28;20446;-69
2023/12/15 04:26:45;;;;;;;1.43;1.33;;;;;1.80;97402.00;;;;4994107;28;20837;-70
2023/12/15 04:29:34;;;;;;;1.50;1.40;;;;;1.90;97410.00;;;;4992244;28;21058;-70
2023/12/15 04:32:23;;;;;;;1.37;1.27;;;;;2.40;97425.00;;;;4990527;28;20446;-69
2023/12/15 04:35:12;;;;;;;1.30;1.20;;;;;2.30;97423.00;;;;4991929;28;20433;-70
2023/12/15 04:38:03;;;;;;;2.23;2.03;;;;;2.50;97427.00;;;;4992266;28;20440;-70
2023/12/15 04:40:52;;;;;;;1.23;1.13;;;;;2.40;97438.00;;;;4991082;28;20433;-70
2023/12/15 04:43:41;;;;;;;1.30;1.20;;;;;2.20;97435.00;;;;4989435;28;20454;-70
2023/12/15 04:46:31;;;;;;;1.47;1.37;;;;;2.60;97447.00;;;;4992745;28;20437;-70
2023/12/15 04:49:20;;;;;;;1.30;1.20;;;;;2.40;97449.00;;;;4992170;28;20437;-70
2023/12/15 04:52:09;;;;;;;1.87;1.77;;;;;2.10;97452.00;;;;4991607;28;20422;-70
2023/12/15 04:54:59;;;;;;;2.63;2.37;;;;;2.50;97463.00;;;;4991665;28;20434;-70
2023/12/15 04:57:48;;;;;;;1.67;1.57;;;;;2.70;97464.00;;;;4992431;28;20817;-70
2023/12/15 05:00:37;;;;;;;2.73;2.50;;;;;2.60;97471.00;;;;4990298;28;20441;-70
2023/12/15 05:03:26;;;;;;;1.33;1.20;;;;;1.80;97454.00;;;;4991294;28;20458;-70
2023/12/15 05:06:18;;;;;;;1.73;1.60;;;;;1.50;97452.00;;;;4985656;28;20434;-69
2023/12/15 05:09:09;;;;;;;2.13;1.97;;;;;2.40;97456.00;;;;4995051;28;20422;-70
2023/12/15 05:11:59;;;;;;;2.67;2.47;;;;;2.20;97460.00;;;;4991601;28;21376;-70
2023/12/15 05:14:48;;;;;;;2.13;1.93;;;;;2.10;97457.00;;;;4996991;28;20425;-70
2023/12/15 05:17:37;;;;;;;2.13;1.93;;;;;1.80;97460.00;;;;4990493;28;20442;-70
2023/12/15 05:20:26;;;;;;;2.13;1.93;;;;;2.40;97469.00;;;;4990950;28;20866;-70
2023/12/15 05:23:15;;;;;;;1.50;1.40;;;;;2.40;97463.00;;;;4991571;28;20848;-70
2023/12/15 05:26:04;;;;;;;2.27;2.07;;;;;2.20;97463.00;;;;4991420;28;20419;-70
2023/12/15 05:28:55;;;;;;;1.40;1.30;;;;;2.10;97468.00;;;;4992184;28;20446;-70
2023/12/15 05:31:45;;;;;;;1.47;1.37;;;;;2.50;97471.00;;;;4990878;28;20426;-70
2023/12/15 05:34:34;;;;;;;1.37;1.27;;;;;2.40;97473.00;;;;4990172;28;20481;-70
2023/12/15 05:37:23;;;;;;;0.70;0.70;;;;;2.40;97475.00;;;;4989793;28;20418;-70
2023/12/15 05:40:13;;;;;;;2.80;2.60;;;;;2.70;97497.00;;;;4994376;28;20430;-70
2023/12/15 05:43:02;;;;;;;1.77;1.63;;;;;2.00;97495.00;;;;4991085;28;20466;-70
2023/12/15 05:45:52;;;;;;;2.07;1.87;;;;;2.50;97498.00;;;;4989424;28;20434;-70
2023/12/15 05:48:41;;;;;;;2.47;2.20;;;;;2.20;97501.00;;;;4986271;28;20427;-70
2023/12/15 05:51:30;;;;;;;2.77;2.50;;;;;2.40;97505.00;;;;4995068;28;20441;-70
2023/12/15 05:54:19;;;;;;;1.30;1.20;;;;;2.50;97512.00;;;;4994949;28;20442;-70
2023/12/15 05:57:08;;;;;;;2.13;1.93;;;;;2.20;97519.00;;;;4990404;28;20433;-70
2023/12/15 05:59:58;;;;;;;2.57;2.37;;;;;2.10;97517.00;;;;4989535;28;20432;-70
2023/12/15 06:02:48;;;;;;;2.13;1.93;;;;;2.00;97516.00;;;;4995050;28;20489;-70
2023/12/15 06:05:37;;;;;;;1.47;1.37;;;;;2.00;97520.00;;;;4997825;28;20421;-70
2023/12/15 06:08:26;;;;;;;1.37;1.27;;;;;2.50;97533.00;;;;5002054;28;20414;-70
2023/12/15 06:11:15;;;;;;;1.77;1.63;;;;;2.40;97530.00;;;;4992474;28;20430;-70
2023/12/15 06:14:04;;;;;;;1.60;1.50;;;;;2.20;97523.00;;;;4990441;28;20831;-69
2023/12/15 06:16:53;;;;;;;1.70;1.60;;;;;1.80;97522.00;;;;4990504;28;20427;-69
2023/12/15 06:19:43;;;;;;;2.20;2.00;;;;;2.30;97533.00;;;;4991842;28;20433;-70
2023/12/15 06:22:32;;;;;;;1.30;1.20;;;;;2.30;97532.00;;;;4990534;28;20469;-69
2023/12/15 06:25:21;;;;;;;1.33;1.23;;;;;2.00;97540.00;;;;4986150;28;20429;-70
2023/12/15 06:28:10;;;;;;;1.83;1.73;;;;;1.80;97539.00;;;;4989387;28;20427;-70
2023/12/15 06:30:59;;;;;;;2.50;2.30;;;;;1.80;97534.00;;;;4994700;28;20435;-70
2023/12/15 06:33:48;;;;;;;1.63;1.53;;;;;2.10;97540.00;;;;4992153;28;20461;-70
2023/12/15 06:36:39;;;;;;;1.53;1.43;;;;;2.20;97550.00;;;;4995373;28;20874;-69
2023/12/15 06:39:28;;;;;;;1.63;1.53;;;;;2.40;97568.00;;;;4994934;28;20433;-70
2023/12/15 06:42:17;;;;;;;1.47;1.37;;;;;2.40;97567.00;;;;4996318;28;20429;-70
2023/12/15 06:45:08;;;;;;;2.50;2.30;;;;;2.30;97575.00;;;;4997088;28;20421;-70
2023/12/15 06:47:58;;;;;;;2.17;2.00;;;;;2.20;97584.00;;;;4998918;28;20449;-70
2023/12/15 06:50:47;;;;;;;1.53;1.43;;;;;2.40;97593.00;;;;4996104;28;20427;-70
2023/12/15 06:53:37;;;;;;;1.43;1.33;;;;;2.20;97575.00;;;;4992399;28;20477;-70
2023/12/15 06:56:26;;;;;;;1.83;1.67;;;;;2.20;97590.00;;;;4990056;28;20424;-70
2023/12/15 06:59:15;;;;;;;1.63;1.53;;;;;2.30;97596.00;;;;4987925;28;20831;-70
2023/12/15 07:02:04;;;;;;;2.10;1.90;;;;;2.40;97604.00;;;;4989049;28;20434;-70
2023/12/15 07:04:53;;;;;;;1.43;1.33;;;;;2.50;97614.00;;;;4996176;28;21366;-70
2023/12/15 07:07:42;;;;;;;1.63;1.53;;;;;2.40;97621.00;;;;4999608;28;20430;-70
2023/12/15 07:10:32;;;;;;;1.43;1.33;;;;;2.20;97626.00;;;;4997631;28;20442;-70
2023/12/15 07:13:21;;;;;;;0.73;0.73;;;;;2.30;97630.00;;;;4990837;28;20449;-70
2023/12/15 07:16:10;;;;;;;2.60;2.40;;;;;2.00;97628.00;;;;4989533;28;20442;-70
2023/12/15 07:18:59;;;;;;;4.57;4.03;;;;;1.90;97638.00;;;;4987350;28;20446;-70
2023/12/15 07:21:48;;;;;;;2.00;1.80;;;;;1.30;97634.00;;;;4987771;28;21287;-70
2023/12/15 07:24:37;;;;;;;2.43;2.23;;;;;1.90;97656.00;;;;4990980;28;20990;-70
2023/12/15 07:27:28;;;;;;;1.57;1.47;;;;;2.20;97659.00;;;;4990194;28;20813;-70
2023/12/15 07:30:17;;;;;;;1.67;1.57;;;;;2.60;97660.00;;;;4988051;28;20426;-70
2023/12/15 07:33:08;;;;;;;3.27;2.97;;;;;2.60;97674.00;;;;4986237;28;20472;-70
2023/12/15 07:35:57;;;;;;;1.97;1.80;;;;;2.70;97674.00;;;;4993210;28;20441;-70
2023/12/15 07:38:47;;;;;;;1.60;1.50;;;;;2.80;97675.00;;;;4990910;28;20449;-70
2023/12/15 07:41:39;;;;;;;1.47;1.37;;;;;2.70;97675.00;;;;4989693;28;20978;-70
2023/12/15 07:44:29;;;;;;;1.40;1.30;;;;;3.00;97680.00;;;;4988554;28;20887;-70
2023/12/15 07:47:18;;;;;;;1.70;1.60;;;;;2.80;97679.00;;;;4991797;28;20441;-70
2023/12/15 07:50:08;;;;;;;3.17;2.87;;;;;2.40;97678.00;;;;4988486;28;20846;-70
2023/12/15 07:52:57;;;;;;;2.47;2.13;;;;;3.10;97693.00;;;;4985239;28;20460;-70
2023/12/15 07:55:46;;;;;;;2.07;1.63;;;;;2.20;97707.00;;;;4994835;28;20430;-70
2023/12/15 07:58:35;;;;;;;1.23;1.13;;;;;2.30;97708.00;;;;4997927;28;20444;-70
2023/12/15 08:01:26;;;;;;;2.63;2.43;;;;;2.50;97713.00;;;;4995583;28;20966;-70
2023/12/15 08:04:15;;;;;;;2.77;2.47;;;;;3.00;97719.00;;;;4994379;28;20982;-70
2023/12/15 08:07:04;;;;;;;3.17;2.57;;;;;3.30;97728.00;;;;4988835;28;20512;-70
2023/12/15 08:09:53;;;;;;;1.73;1.53;;;;;3.50;97735.00;;;;4995268;28;20433;-70
2023/12/15 08:12:42;;;;;;;3.80;2.87;;;;;4.00;97737.00;;;;4993563;28;20471;-70
2023/12/15 08:15:31;;;;;;;1.90;1.60;;;;;3.70;97749.00;;;;4990384;28;20952;-70
2023/12/15 08:18:21;;;;;;;2.30;2.03;;;;;3.40;97750.00;;;;4992127;28;20452;-70
2023/12/15 08:21:11;;;;;;;2.70;2.20;;;;;3.10;97741.00;;;;4994245;28;20830;-70
2023/12/15 08:24:00;;;;;;;2.37;2.00;;;;;3.50;97745.00;;;;4991527;28;20461;-70
2023/12/15 08:26:49;;;;;;;1.97;1.77;;;;;3.70;97759.00;;;;4990032;28;20960;-70
2023/12/15 08:29:38;;;;;;;3.53;2.57;;;;;3.70;97784.00;;;;4996408;28;20430;-70
2023/12/15 08:32:27;;;;;;;2.23;1.77;;;;;2.50;97776.00;;;;4995138;28;20430;-68
2023/12/15 08:35:17;;;;;;;2.40;2.03;;;;;3.60;97783.00;;;;4992264;28;20207;-69
2023/12/15 08:38:06;;;;;;;3.00;2.53;;;;;4.10;97792.00;;;;4993461;28;20460;-69
2023/12/15 08:40:55;;;;;;;3.20;2.40;;;;;3.90;97815.00;;;;4997282;28;20218;-69
2023/12/15 08:43:44;;;;;;;2.67;1.97;;;;;3.90;97814.00;;;;4995251;28;20698;-70
2023/12/15 08:46:33;;;;;;;2.07;1.70;;;;;4.10;97813.00;;;;4994216;28;20218;-69
2023/12/15 08:49:22;;;;;;;2.10;1.77;;;;;4.40;97832.00;;;;4992891;28;20209;-70
2023/12/15 08:52:13;;;;;;;3.70;3.03;;;;;4.40;97844.00;;;;4996035;28;20257;-70
2023/12/15 08:55:02;;;;;;;2.83;2.20;;;;;4.70;97826.00;;;;4986507;28;20222;-70
2023/12/15 08:57:51;;;;;;;1.87;1.43;;;;;4.80;97848.00;;;;4992121;28;20202;-70
2023/12/15 09:00:40;;;;;;;1.90;1.50;;;;;5.50;97840.00;;;;4994785;28;20752;-70
2023/12/15 09:03:29;;;;;;;2.47;1.90;;;;;5.80;97840.00;;;;4988240;28;20245;-70
2023/12/15 09:06:18;;;;;;;3.17;2.13;;;;;5.80;97854.00;;;;4993075;28;20206;-69
2023/12/15 09:09:13;;;;;;;3.53;2.67;;;;;5.90;97860.00;;;;4983132;28;20261;-69
2023/12/15 09:12:01;;;;;;;4.57;3.10;;;;;6.60;97864.00;;;;4991346;28;20210;-70
2023/12/15 09:14:51;;;;;;;1.97;1.53;;;;;6.40;97866.00;;;;4991771;28;20203;-69
2023/12/15 09:17:40;;;;;;;1.93;1.40;;;;;6.20;97867.00;;;;4992309;28;20229;-69
2023/12/15 09:20:31;;;;;;;3.10;2.07;;;;;6.00;97871.00;;;;4993875;28;20211;-70
2023/12/15 09:23:20;;;;;;;2.63;1.97;;;4.00;99.90;7.20;97890.00;;;;4997987;28;20225;-70
2023/12/15 09:26:10;;;;;;;3.27;2.60;;;4.10;99.90;7.60;97877.00;;;;4997072;28;20215;-70
2023/12/15 09:28:59;;;;;;;2.27;1.67;;;4.40;99.90;7.00;97888.00;;;;4994378;28;20214;-71
2023/12/15 09:31:47;;;;;;;2.53;2.03;;;4.40;99.90;7.00;97885.00;;;;4996307;28;20201;-70
2023/12/15 09:34:36;;;;;;;2.20;1.73;;;4.50;99.90;7.70;97883.00;;;;4991728;28;20219;-70
2023/12/15 09:37:25;;;;;;;2.23;1.60;;;4.70;99.90;7.90;97887.00;;;;4998775;28;20277;-70
2023/12/15 09:40:15;;;;;;;3.10;2.50;;;4.80;99.90;8.00;97899.00;;;;4994642;28;20213;-70
2023/12/15 09:43:05;;;;;;;2.77;2.10;;;5.00;99.90;8.00;97892.00;;;;4989869;28;20218;-70
2023/12/15 09:45:56;;;;;;;2.73;1.87;;;5.10;99.90;8.00;97885.00;;;;4990713;28;20238;-69
2023/12/15 09:48:45;;;;;;;1.83;1.43;;;5.20;99.90;7.50;97900.00;;;;4993336;28;20719;-69
2023/12/15 09:51:37;;;;;;;2.00;1.57;;;5.20;99.90;8.10;97920.00;;;;4996234;28;20202;-69
2023/12/15 09:54:26;;;;;;;2.03;1.50;;;5.20;99.90;7.80;97893.00;;;;4995136;28;20226;-69
2023/12/15 09:57:15;;;;;;;2.83;2.27;;;5.30;99.90;8.00;97913.00;;;;4994875;28;20203;-70
2023/12/15 10:00:07;;;;;;;2.33;1.80;;;5.40;99.90;8.20;97919.00;;;;4994830;28;20214;-70
2023/12/15 10:02:56;;;;;;;2.47;1.77;;;5.60;99.90;8.20;97889.00;;;;4992950;28;20218;-74
2023/12/15 10:05:44;;;;;;;1.60;1.27;;;5.70;99.90;8.70;97887.00;;;;4992610;28;20715;-74
2023/12/15 10:08:42;;;;;;;1.30;1.07;;;5.90;99.90;8.70;97909.00;;;;4993323;28;20237;-68
2023/12/15 10:11:37;;;;;;;1.63;1.40;;;6.10;99.90;8.90;97891.00;;;;4999431;28;20214;-68
2023/12/15 10:14:26;;;;;;;2.77;1.90;;;6.20;99.90;9.40;97871.00;;;;4995747;28;20738;-68
2023/12/15 10:17:16;;;;;;;3.93;2.83;;;6.40;99.90;9.80;97915.00;;;;4984942;28;20273;-69
2023/12/15 10:20:11;;;;;;;4.73;3.13;;;6.80;99.90;8.80;97922.00;;;;4990560;28;20200;-69
2023/12/15 10:23:03;;;;;;;3.10;2.03;;;7.40;98.40;10.00;97924.00;;;;4989544;28;20222;-69
2023/12/15 10:25:53;;;;;;;3.30;2.17;;;7.80;99.50;10.70;97935.00;;;;4991762;28;20235;-68
2023/12/15 10:28:42;;;;;;;3.57;2.23;;;8.50;98.60;11.20;97935.00;;;;4993618;28;20202;-68
2023/12/15 10:31:31;;;;;;;4.07;2.60;;;9.20;96.40;11.60;97948.00;;;;4987915;28;20210;-68
2023/12/15 10:34:24;;;;;;;4.93;2.50;;;10.10;92.70;12.40;97954.00;;;;4988388;28;20319;-68
2023/12/15 10:37:13;;;;;;;8.67;4.33;;;11.00;90.30;12.30;97956.00;;;;4991941;28;20202;-68
2023/12/15 10:40:04;;;;;;;7.40;3.77;;;11.40;87.00;13.00;97985.00;;;;4990168;28;20214;-68
2023/12/15 10:42:54;;;;;;;3.55;1.80;;;11.90;86.90;11.60;97975.00;;;;4989382;28;20218;-67
2023/12/15 10:45:45;;;;;;;4.33;2.40;;;12.10;76.50;10.20;97963.00;;;;4988714;28;20231;-68
2023/12/15 10:48:35;;;;;;;5.60;2.80;;;11.40;73.60;9.30;97995.00;;;;4987901;28;20195;-67
2023/12/15 10:51:27;;;;;;;6.40;3.10;;;10.90;74.00;10.60;97987.00;;;;4991155;28;20205;-69
2023/12/15 10:54:18;;;;;;;4.83;2.83;;;10.20;76.80;12.00;98002.00;;;;4996381;28;20222;-69
2023/12/15 10:57:09;;;;;;;9.00;4.77;;;10.30;80.50;10.00;97987.00;;;;4988505;28;20215;-71
2023/12/15 10:59:58;;;;;;;3.87;2.23;;;10.50;73.80;10.40;98005.00;;;;4993942;28;20738;-69
2023/12/15 11:02:47;;;;;;;5.17;2.90;;;10.30;74.90;10.60;98014.00;;;;4996454;28;20222;-74
2023/12/15 11:05:36;;;;;;;3.20;1.67;;;9.90;75.50;11.10;97998.00;;;;4994840;28;20227;-73
2023/12/15 11:08:27;;;;;;;4.83;2.57;;;10.00;75.00;10.90;97988.00;;;;4990157;28;20210;-68
2023/12/15 11:11:22;;;;;;;6.37;3.60;;;10.10;74.50;11.80;98003.00;;;;4987832;28;20700;-68
2023/12/15 11:14:12;;;;;;;6.83;3.83;;;10.60;76.00;10.70;97997.00;;;;4989318;28;20231;-71
2023/12/15 11:17:01;;;;;;;5.97;3.00;;;10.90;73.40;13.00;98007.00;;;;4985135;28;20206;-69
2023/12/15 11:19:52;;;;;;;4.57;2.27;;;11.30;75.90;13.80;98015.00;;;;4988517;28;20610;-68
2023/12/15 11:22:43;;;;;;;6.30;3.03;;;12.10;77.00;11.50;98016.00;;;;4989322;28;20211;-73
2023/12/15 11:25:36;;;;;;;3.47;1.97;;;12.30;66.40;11.60;98037.00;;;;4993939;28;20722;-68
2023/12/15 11:28:25;;;;;;;3.77;1.93;;;11.70;68.90;10.80;98015.00;;;;4993144;28;20202;-68
2023/12/15 11:31:23;;;;;;;5.40;2.97;;;11.40;68.80;13.00;98017.00;;;;4992274;28;20680;-68
2023/12/15 11:34:39;;;;;;;7.07;3.67;;;11.30;73.40;13.40;98041.00;;;;4995414;28;20225;-67
2023/12/15 11:37:29;;;;;;;3.03;1.60;;;11.70;72.90;13.20;98026.00;;;;4989047;28;20327;-68
2023/12/15 11:40:18;;;;;;;4.27;2.17;;;11.90;71.90;13.20;98023.00;;;;4987755;28;20207;-68
2023/12/15 11:43:09;;;;;;;13.27;5.53;;;12.20;72.80;14.10;98032.00;;;;4992604;28;20237;-68
2023/12/15 11:46:00;;;;;;;8.57;2.73;;;12.50;74.10;14.80;98032.00;;;;4990133;28;20222;-68
2023/12/15 11:48:48;;;;;;;5.60;1.90;;;12.80;75.80;15.70;98034.00;;;;4987622;28;20203;-67
2023/12/15 11:51:38;;;;;;;13.57;4.20;;;13.30;75.50;15.10;98058.00;;;;4989512;28;20715;-69
2023/12/15 11:54:27;;;;;;;13.87;4.63;;;13.60;70.40;15.40;98086.00;;;;4987930;28;20683;-69
2023/12/15 11:57:15;;;;;;;21.73;6.77;;;13.70;72.50;15.70;98038.00;;;;4991572;28;20687;-69
2023/12/15 12:00:09;;;;;;;24.77;7.17;;;13.80;72.20;13.80;98062.00;;;;4988690;28;20660;-69
2023/12/15 12:02:58;;;;;;;12.73;3.93;;;13.70;66.80;11.90;98045.00;;;;4990660;28;20698;-68
2023/12/15 12:05:48;;;;;;;12.80;4.10;;;12.70;66.70;12.20;98071.00;;;;4991142;28;20206;-69
2023/12/15 12:08:37;;;;;;;15.87;4.60;;;11.90;71.20;12.00;98068.00;;;;4991301;28;20190;-69
2023/12/15 12:11:26;;;;;;;24.67;6.97;;;11.10;72.20;12.10;98032.00;;;;4986835;28;20203;-69
2023/12/15 12:14:15;;;;;;;17.47;4.67;;;10.60;73.10;12.40;98072.00;;;;4985205;28;20227;-69
2023/12/15 12:17:07;;;;;;;12.07;3.33;;;10.50;72.70;12.60;98070.00;;;;4990191;28;20252;-69
2023/12/15 12:19:56;;;;;;;6.40;1.97;;;10.40;73.60;12.10;98085.00;;;;4992942;28;20708;-70
2023/12/15 12:22:47;;;;;;;23.30;13.27;;;10.20;72.60;10.80;98090.00;;;;4986541;28;20268;-70
2023/12/15 12:25:36;;;;;;;10.97;3.27;;;9.80;71.10;11.70;98047.00;;;;4990254;28;20722;-70
2023/12/15 12:28:27;;;;;;;9.47;3.10;;;9.70;71.60;10.10;98071.00;;;;4987559;28;20202;-73
2023/12/15 12:31:16;;;;;;;14.30;4.83;;;9.40;67.90;11.80;98041.00;;;;4988066;28;20257;-69
2023/12/15 12:34:10;;;;;;;13.93;4.83;;;9.40;70.40;13.10;98044.00;;;;4991657;23;20242;-86
2023/12/15 12:36:59;;;;;;;5.87;2.63;;;10.00;72.90;14.20;98039.00;;;;4985122;28;20254;-86
2023/12/15 12:39:48;;;;;;;9.03;4.77;;;10.70;70.20;14.80;98046.00;;;;4983424;28;20214;-87
2023/12/15 12:42:37;;;;;;;5.10;2.87;;;11.50;68.20;13.20;98081.00;;;;4986259;28;20219;-87
2023/12/15 12:45:26;;;;;;;3.37;2.10;;;11.40;65.60;14.20;98048.00;;;;4993302;28;20198;-87
2023/12/15 12:48:15;;;;;;;4.63;2.67;;;11.80;65.40;11.30;98060.00;;;;4991107;28;20199;-87
2023/12/15 12:51:06;;;;;;;5.60;3.37;;;11.40;60.90;12.20;98063.00;;;;4988614;28;20781;-87
2023/12/15 12:53:54;;;;;;;2.17;1.53;;;10.90;64.60;12.60;98033.00;;;;4996511;28;20231;-88
2023/12/15 12:56:43;;;;;;;2.73;1.73;;;10.70;65.40;13.30;98037.00;;;;4995861;28;20227;-87
2023/12/15 12:59:34;;;;;;;2.80;1.73;;;11.00;65.70;13.70;98076.00;;;;4989715;28;20220;-86
2023/12/15 13:02:24;;;;;;;3.47;2.10;;;11.30;65.50;14.30;98040.00;;;;4987019;28;20215;-89
2023/12/15 13:05:13;;;;;;;4.80;2.93;;;11.60;64.60;12.60;98043.00;;;;4991540;28;20207;-86
2023/12/15 13:08:04;;;;;;;5.10;2.70;;;11.50;62.00;13.40;98052.00;;;;4991106;28;20654;-86
2023/12/15 13:10:53;;;;;;;4.07;2.37;;;11.90;60.40;14.40;98052.00;;;;4989930;28;20217;-87
2023/12/15 13:13:42;;;;;;;2.93;1.60;;;;;14.70;98072.00;;;;4989240;28;20230;-87
2023/12/15 13:16:31;;;;;;;6.23;3.20;;;;;13.80;98043.00;;;;4989679;28;20763;-87
2023/12/15 13:19:21;;;;;;;3.30;1.63;;;;;13.10;98049.00;;;;5010083;28;22335;-88
2023/12/15 13:22:10;;;;;;;8.23;4.07;;;;;14.10;98064.00;;;;5010420;28;20224;-90
2023/12/15 13:25:00;;;;;;;5.63;2.87;;;;;15.40;98060.00;;;;5008337;28;20779;-87
2023/12/15 13:27:51;;;;;;;5.33;2.50;;;;;13.30;98042.00;;;;5007543;28;20195;-89
2023/12/15 13:30:43;;;;;;;2.70;1.53;;;;;13.80;98091.00;;;;5008903;28;20214;-88
2023/12/15 13:33:32;;;;;;;6.20;3.00;;;;;14.50;98097.00;;;;5008997;28;20230;-87
2023/12/15 13:36:21;;;;;;;6.67;3.43;;;;;12.10;98109.00;;;;5012698;28;20237;-86
2023/12/15 13:39:15;;;;;;;8.50;4.37;;;;;13.20;98112.00;;;;5012549;28;20284;-90
2023/12/15 13:42:09;;;;;;;5.33;2.80;;;;;13.50;98086.00;;;;5006154;28;20210;-87
2023/12/15 13:44:58;;;;;;;4.30;2.20;;;;;14.40;98120.00;;;;5007678;28;20578;-88
2023/12/15 13:47:49;;;;;;;4.97;2.53;;;;;14.70;98135.00;;;;5011771;28;20209;-88